Terminal Aerodrome Forecast
Issued by NWS

Home | Current Version | Previous Version | Text Only | Print | Product List | Glossary On
Versions: 1 2 3 4 5 6 7 8 9 10 11 12 13 14 15 16 17 18 19 20 21 22 23 24 25
262
FTUS44 KFWD 140520
TAFGKY
TAF
KGKY 140520Z 1406/1506 15013KT P6SM SCT250
     FM140800 17017KT P6SM BKN015
     FM141500 19016KT P6SM BKN025
     FM141900 18012KT P6SM SCT040
     FM150400 VRB04KT P6SM BKN050=

USA.gov is the U.S. government's official web portal to all federal, state and local government web resources and services.